createdAt,value
2019-02-24T00:01:33.841Z,99.90
2019-02-24T00:04:02.251Z,99.90
2019-02-24T00:06:30.687Z,99.90
2019-02-24T00:08:59.096Z,99.90
2019-02-24T00:11:27.867Z,99.90
2019-02-24T00:13:56.280Z,99.90
2019-02-24T00:16:25.638Z,99.90
2019-02-24T00:18:54.039Z,99.90
2019-02-24T00:21:22.455Z,99.90
2019-02-24T00:23:50.878Z,99.90
2019-02-24T00:26:19.288Z,99.90
2019-02-24T00:28:47.710Z,99.90
2019-02-24T00:31:16.108Z,99.90
2019-02-24T00:33:44.511Z,99.90
2019-02-24T00:36:12.927Z,99.90
2019-02-24T00:38:41.317Z,99.90
2019-02-24T00:41:10.298Z,99.90
2019-02-24T00:43:38.705Z,99.90
2019-02-24T00:46:07.173Z,99.90
2019-02-24T00:48:35.628Z,99.90
2019-02-24T00:51:04.088Z,99.90
2019-02-24T00:53:32.521Z,99.90
2019-02-24T00:56:00.944Z,99.90
2019-02-24T00:58:29.381Z,99.90
2019-02-24T01:00:58.072Z,99.90
2019-02-24T01:03:26.486Z,99.90
2019-02-24T01:05:54.948Z,99.90
2019-02-24T01:08:23.440Z,99.90
2019-02-24T01:10:51.859Z,99.90
2019-02-24T01:13:20.278Z,99.90
2019-02-24T01:15:48.699Z,99.90
2019-02-24T01:18:17.908Z,99.90
2019-02-24T01:20:46.342Z,99.90
2019-02-24T01:23:14.745Z,99.90
2019-02-24T01:25:43.163Z,99.90
2019-02-24T01:28:11.571Z,99.90
2019-02-24T01:30:39.970Z,99.90
2019-02-24T01:33:08.402Z,99.90
2019-02-24T01:35:36.802Z,99.90
2019-02-24T01:38:05.486Z,99.90
2019-02-24T01:40:33.870Z,99.90
2019-02-24T01:43:02.300Z,99.90
2019-02-24T01:45:30.700Z,99.90
2019-02-24T01:47:59.121Z,99.90
2019-02-24T01:50:27.544Z,99.90
2019-02-24T01:52:56.003Z,99.90
2019-02-24T01:55:24.476Z,99.90
2019-02-24T01:57:52.921Z,99.90
2019-02-24T02:00:21.352Z,99.90
2019-02-24T02:02:49.775Z,99.90
2019-02-24T02:05:18.223Z,99.90
2019-02-24T02:07:46.630Z,99.90
2019-02-24T02:10:15.060Z,99.90
2019-02-24T02:12:43.538Z,99.90
2019-02-24T02:15:12.143Z,99.90
2019-02-24T02:17:40.560Z,99.90
2019-02-24T02:20:09.588Z,99.90
2019-02-24T02:22:37.987Z,99.90
2019-02-24T02:25:08.136Z,99.90
2019-02-24T02:27:36.544Z,99.90
2019-02-24T02:30:07.473Z,99.90
2019-02-24T02:32:35.861Z,99.90
2019-02-24T02:35:05.931Z,99.90
2019-02-24T02:37:34.335Z,99.90
2019-02-24T02:40:03.208Z,99.90
2019-02-24T02:42:31.776Z,99.90
2019-02-24T02:45:00.318Z,99.90
2019-02-24T02:47:29.159Z,99.90
2019-02-24T02:49:57.575Z,99.90
2019-02-24T02:52:26.001Z,99.90
2019-02-24T02:54:54.428Z,99.90
2019-02-24T02:57:22.856Z,99.90
2019-02-24T02:59:51.251Z,99.90
2019-02-24T03:02:24.363Z,99.90
2019-02-24T03:04:49.779Z,99.90
2019-02-24T03:07:22.822Z,99.90
2019-02-24T03:09:51.256Z,99.90
2019-02-24T03:12:19.665Z,99.90
2019-02-24T03:14:48.087Z,99.90
2019-02-24T03:17:16.483Z,99.90
2019-02-24T03:19:44.925Z,99.90
2019-02-24T03:22:14.661Z,99.90
2019-02-24T03:24:43.980Z,99.90
2019-02-24T03:27:12.400Z,99.90
2019-02-24T03:29:40.809Z,99.90
2019-02-24T03:32:09.228Z,99.90
2019-02-24T03:34:37.643Z,99.90
2019-02-24T03:37:06.090Z,99.90
2019-02-24T03:39:34.854Z,99.90
2019-02-24T03:42:03.329Z,99.90
2019-02-24T03:44:31.732Z,99.90
2019-02-24T03:47:00.136Z,99.90
2019-02-24T03:49:28.533Z,99.90
2019-02-24T03:51:56.953Z,99.90
2019-02-24T03:54:25.359Z,99.90
2019-02-24T03:56:53.764Z,99.90
2019-02-24T03:59:22.194Z,99.90
2019-02-24T04:01:50.768Z,99.90
2019-02-24T04:04:19.171Z,99.90
2019-02-24T04:06:47.567Z,99.90
2019-02-24T04:09:15.967Z,99.90
2019-02-24T04:11:44.371Z,99.90
2019-02-24T04:14:12.774Z,99.90
2019-02-24T04:16:41.430Z,99.90
2019-02-24T04:19:09.829Z,99.90
2019-02-24T04:21:38.240Z,99.90
2019-02-24T04:24:06.652Z,99.90
2019-02-24T04:26:35.047Z,99.90
2019-02-24T04:29:03.447Z,99.90
2019-02-24T04:31:31.854Z,99.90
2019-02-24T04:34:00.260Z,99.90
2019-02-24T04:36:29.074Z,99.90
2019-02-24T04:38:57.968Z,99.90
2019-02-24T04:41:26.481Z,99.90
2019-02-24T04:43:54.893Z,99.90
2019-02-24T04:46:23.310Z,99.90
2019-02-24T04:48:51.990Z,99.90
2019-02-24T04:51:20.387Z,99.90
2019-02-24T04:53:48.796Z,99.90
2019-02-24T04:56:17.282Z,99.90
2019-02-24T04:58:45.684Z,99.90
2019-02-24T05:01:14.087Z,99.90
2019-02-24T05:03:42.512Z,99.90
2019-02-24T05:06:10.911Z,99.90
2019-02-24T05:08:39.343Z,99.90
2019-02-24T05:11:07.752Z,99.90
2019-02-24T05:13:36.156Z,99.90
2019-02-24T05:16:04.551Z,99.90
2019-02-24T05:18:32.966Z,99.90
2019-02-24T05:21:01.360Z,99.90
2019-02-24T05:23:29.798Z,99.90
2019-02-24T05:25:58.199Z,99.90
2019-02-24T05:28:26.628Z,99.90
2019-02-24T05:30:55.032Z,99.90
2019-02-24T05:33:23.455Z,99.90
2019-02-24T05:35:51.928Z,99.90
2019-02-24T05:38:25.411Z,99.90
2019-02-24T05:40:53.799Z,99.90
2019-02-24T05:43:22.219Z,99.90
2019-02-24T05:45:50.627Z,99.90
2019-02-24T05:48:19.052Z,99.90
2019-02-24T05:50:47.452Z,99.90
2019-02-24T05:53:15.868Z,99.90
2019-02-24T05:55:44.302Z,99.90
2019-02-24T05:58:12.789Z,99.90
2019-02-24T06:00:41.513Z,99.90
2019-02-24T06:03:10.014Z,99.90
2019-02-24T06:05:38.439Z,99.90
2019-02-24T06:08:06.836Z,99.90
2019-02-24T06:10:35.244Z,99.90
2019-02-24T06:13:03.632Z,99.90
2019-02-24T06:15:32.057Z,99.90
2019-02-24T06:18:00.454Z,99.90
2019-02-24T06:20:28.881Z,99.90
2019-02-24T06:22:57.303Z,99.90
2019-02-24T06:25:25.714Z,99.90
2019-02-24T06:27:54.108Z,99.90
2019-02-24T06:30:22.540Z,99.90
2019-02-24T06:32:50.932Z,99.90
2019-02-24T06:35:19.340Z,99.90
2019-02-24T06:37:47.747Z,99.90
2019-02-24T06:40:16.150Z,99.90
2019-02-24T06:42:44.568Z,99.90
2019-02-24T06:45:12.992Z,99.90
2019-02-24T06:47:44.106Z,99.90
2019-02-24T06:50:12.560Z,99.90
2019-02-24T06:52:41.049Z,99.90
2019-02-24T06:55:09.531Z,99.90
2019-02-24T06:57:37.947Z,99.90
2019-02-24T07:00:14.193Z,99.90
2019-02-24T07:02:39.627Z,99.90
2019-02-24T07:05:08.845Z,99.90
2019-02-24T07:07:37.267Z,99.90
2019-02-24T07:10:07.065Z,99.90
2019-02-24T07:12:35.575Z,99.90
2019-02-24T07:15:06.815Z,99.90
2019-02-24T07:17:35.307Z,99.90
2019-02-24T07:20:04.345Z,99.90
2019-02-24T07:22:32.752Z,99.90
2019-02-24T07:25:01.168Z,99.90
2019-02-24T07:27:29.584Z,99.90
2019-02-24T07:29:57.981Z,99.90
2019-02-24T07:32:26.407Z,99.90
2019-02-24T07:34:54.808Z,99.90
2019-02-24T07:37:23.320Z,99.90
2019-02-24T07:39:51.755Z,99.90
2019-02-24T07:42:20.181Z,99.90
2019-02-24T07:44:48.571Z,99.90
2019-02-24T07:47:16.991Z,99.90
2019-02-24T07:49:45.684Z,99.90
2019-02-24T07:52:14.103Z,99.90
2019-02-24T07:54:42.523Z,99.90
2019-02-24T07:57:10.935Z,99.90
2019-02-24T07:59:39.632Z,99.90
2019-02-24T08:02:08.067Z,99.90
2019-02-24T08:04:36.461Z,99.90
2019-02-24T08:07:04.895Z,99.90
2019-02-24T08:09:33.296Z,99.90
2019-02-24T08:12:02.116Z,99.90
2019-02-24T08:14:30.592Z,99.90
2019-02-24T08:16:59.005Z,99.90
2019-02-24T08:19:27.419Z,99.90
2019-02-24T08:21:56.136Z,99.90
2019-02-24T08:24:24.543Z,99.90
2019-02-24T08:26:52.951Z,99.90
2019-02-24T08:29:21.385Z,99.90
2019-02-24T08:31:49.808Z,99.90
2019-02-24T08:34:18.216Z,99.90
2019-02-24T08:36:46.630Z,99.90
2019-02-24T08:39:15.032Z,99.90
2019-02-24T08:41:43.815Z,99.90
2019-02-24T08:44:12.272Z,99.90
2019-02-24T08:46:40.709Z,99.90
2019-02-24T08:49:09.108Z,99.90
2019-02-24T08:51:37.531Z,99.90
2019-02-24T08:54:05.971Z,99.90
2019-02-24T08:56:34.673Z,99.90
2019-02-24T08:59:03.105Z,99.90
2019-02-24T09:01:31.507Z,99.90
2019-02-24T09:03:59.923Z,99.90
2019-02-24T09:06:28.335Z,99.90
2019-02-24T09:08:56.771Z,99.90
2019-02-24T09:11:25.186Z,99.90
2019-02-24T09:13:53.684Z,99.90
2019-02-24T09:16:22.100Z,99.90
2019-02-24T09:18:50.540Z,99.90
2019-02-24T09:21:19.033Z,99.90
2019-02-24T09:23:47.439Z,99.90
2019-02-24T09:26:15.839Z,99.90
2019-02-24T09:28:44.250Z,99.90
2019-02-24T09:31:12.673Z,99.90
2019-02-24T09:33:41.092Z,99.90
2019-02-24T09:36:09.539Z,99.90
2019-02-24T09:38:37.951Z,99.90
2019-02-24T09:41:06.417Z,99.90
2019-02-24T09:43:34.847Z,99.90
2019-02-24T09:46:03.328Z,99.90
2019-02-24T09:48:31.724Z,99.90
2019-02-24T09:51:00.139Z,99.90
2019-02-24T09:53:28.572Z,99.90
2019-02-24T09:55:56.987Z,99.90
2019-02-24T09:58:25.412Z,99.90
2019-02-24T10:00:53.820Z,99.90
2019-02-24T10:03:22.256Z,99.90
2019-02-24T10:05:50.652Z,99.90
2019-02-24T10:08:19.093Z,99.90
2019-02-24T10:10:47.516Z,99.90
2019-02-24T10:13:15.922Z,99.90
2019-02-24T10:15:44.342Z,99.90
2019-02-24T10:18:12.764Z,99.90
2019-02-24T10:20:41.177Z,99.90
2019-02-24T10:23:09.603Z,99.90
2019-02-24T10:25:38.317Z,99.90
2019-02-24T10:28:06.741Z,99.90
2019-02-24T10:30:35.252Z,99.90
2019-02-24T10:33:03.731Z,99.90
2019-02-24T10:35:32.210Z,99.90
2019-02-24T10:38:00.709Z,99.90
2019-02-24T10:40:29.209Z,99.90
2019-02-24T10:42:57.619Z,99.90
2019-02-24T10:45:26.042Z,99.90
2019-02-24T10:47:54.462Z,99.90
2019-02-24T10:50:22.969Z,99.90
2019-02-24T10:52:57.283Z,99.90
2019-02-24T10:55:25.712Z,99.90
2019-02-24T10:57:54.215Z,99.90
2019-02-24T11:00:22.645Z,99.90
2019-02-24T11:02:51.064Z,99.90
2019-02-24T11:05:19.559Z,99.90
2019-02-24T11:07:47.960Z,99.90
2019-02-24T11:10:16.382Z,99.90
2019-02-24T11:12:44.792Z,99.90
2019-02-24T11:15:13.782Z,99.90
2019-02-24T11:17:42.191Z,99.90
2019-02-24T11:20:12.953Z,99.90
2019-02-24T11:22:41.363Z,99.90
2019-02-24T11:25:11.239Z,99.90
2019-02-24T11:27:39.697Z,99.90
2019-02-24T11:30:15.652Z,99.90
2019-02-24T11:32:44.029Z,99.90
2019-02-24T11:35:13.071Z,99.90
2019-02-24T11:37:41.586Z,99.90
2019-02-24T11:40:12.602Z,99.90
2019-02-24T11:42:41.018Z,99.90
2019-02-24T11:45:09.975Z,99.90
2019-02-24T11:47:38.566Z,99.90
2019-02-24T11:50:11.941Z,99.90
2019-02-24T11:52:40.350Z,99.90
2019-02-24T11:55:09.891Z,99.90
2019-02-24T11:57:38.717Z,99.90
2019-02-24T12:00:15.021Z,99.90
2019-02-24T12:02:43.600Z,99.90
2019-02-24T12:05:12.147Z,99.90
2019-02-24T12:07:40.878Z,99.90
2019-02-24T12:10:12.862Z,99.90
2019-02-24T12:12:41.280Z,99.90
2019-02-24T12:15:11.447Z,99.90
2019-02-24T12:17:39.870Z,99.90
2019-02-24T12:20:11.348Z,99.90
2019-02-24T12:22:39.775Z,99.90
2019-02-24T12:25:10.094Z,99.90
2019-02-24T12:27:38.522Z,99.90
2019-02-24T12:30:10.236Z,99.90
2019-02-24T12:32:38.756Z,99.90
2019-02-24T12:35:07.559Z,99.90
2019-02-24T12:37:36.012Z,99.90
2019-02-24T12:40:07.132Z,99.90
2019-02-24T12:42:35.553Z,99.90
2019-02-24T12:45:06.046Z,99.90
2019-02-24T12:47:34.576Z,99.90
2019-02-24T12:50:04.080Z,99.90
2019-02-24T12:52:32.488Z,99.90
2019-02-24T12:55:00.909Z,99.90
2019-02-24T12:57:29.328Z,99.90
2019-02-24T12:59:57.759Z,99.90
2019-02-24T13:02:26.179Z,99.90
2019-02-24T13:04:54.616Z,99.90
2019-02-24T13:07:23.075Z,99.90
2019-02-24T13:09:51.517Z,99.90
2019-02-24T13:12:19.929Z,99.90
2019-02-24T13:14:48.359Z,99.90
2019-02-24T13:17:16.789Z,99.90
2019-02-24T13:19:45.191Z,99.90
2019-02-24T13:22:13.594Z,99.90
2019-02-24T13:24:42.054Z,99.90
2019-02-24T13:27:10.455Z,99.90
2019-02-24T13:29:38.872Z,99.90
2019-02-24T13:32:14.611Z,99.90
2019-02-24T13:34:38.465Z,99.90
2019-02-24T13:37:06.869Z,99.90
2019-02-24T13:39:35.380Z,99.90
2019-02-24T13:42:03.788Z,99.90
2019-02-24T13:44:32.244Z,99.90
2019-02-24T13:47:00.651Z,99.90
2019-02-24T13:49:29.135Z,99.90
2019-02-24T13:51:57.566Z,99.90
2019-02-24T13:54:25.963Z,99.90
2019-02-24T13:56:54.494Z,99.90
2019-02-24T13:59:22.955Z,99.90
2019-02-24T14:01:51.364Z,99.90
2019-02-24T14:04:19.807Z,99.90
2019-02-24T14:06:48.283Z,99.90
2019-02-24T14:09:16.671Z,99.90
2019-02-24T14:11:45.104Z,99.90
2019-02-24T14:14:13.529Z,99.30
2019-02-24T14:16:41.936Z,98.70
2019-02-24T14:19:10.348Z,99.10
2019-02-24T14:21:38.777Z,98.80
2019-02-24T14:24:07.193Z,98.10
2019-02-24T14:26:35.598Z,98.10
2019-02-24T14:29:04.023Z,98.70
2019-02-24T14:31:32.456Z,98.60
2019-02-24T14:34:00.860Z,99.40
2019-02-24T14:36:29.289Z,99.90
2019-02-24T14:38:57.718Z,99.90
2019-02-24T14:41:26.123Z,99.90
2019-02-24T14:43:54.552Z,99.90
2019-02-24T14:46:23.026Z,99.90
2019-02-24T14:48:51.456Z,99.90
2019-02-24T14:51:19.909Z,99.90
2019-02-24T14:53:50.170Z,99.90
2019-02-24T14:56:18.715Z,99.90
2019-02-24T14:58:47.263Z,99.90
2019-02-24T15:01:15.736Z,99.90
2019-02-24T15:03:44.145Z,99.90
2019-02-24T15:06:12.556Z,99.90
2019-02-24T15:08:41.339Z,99.90
2019-02-24T15:11:14.378Z,99.90
2019-02-24T15:13:42.861Z,99.90
2019-02-24T15:16:11.813Z,99.90
2019-02-24T15:18:40.363Z,99.90
2019-02-24T15:21:08.799Z,99.90
2019-02-24T15:23:37.231Z,99.90
2019-02-24T15:26:05.691Z,99.90
2019-02-24T15:28:34.164Z,99.90
2019-02-24T15:31:02.578Z,99.90
2019-02-24T15:33:31.004Z,99.90
2019-02-24T15:35:59.743Z,99.90
2019-02-24T15:38:28.156Z,99.90
2019-02-24T15:40:56.596Z,99.90
2019-02-24T15:43:25.019Z,99.90
2019-02-24T15:45:53.469Z,99.90
2019-02-24T15:48:22.772Z,99.90
2019-02-24T15:50:51.203Z,99.90
2019-02-24T15:53:19.639Z,99.90
2019-02-24T15:55:48.072Z,99.90
2019-02-24T15:58:17.876Z,99.90
2019-02-24T16:00:46.489Z,99.90
2019-02-24T16:03:14.907Z,99.90
2019-02-24T16:05:43.638Z,99.90
2019-02-24T16:08:12.063Z,99.90
2019-02-24T16:10:40.491Z,99.90
2019-02-24T16:13:16.670Z,99.90
2019-02-24T16:15:39.055Z,99.90
2019-02-24T16:18:07.469Z,99.90
2019-02-24T16:20:37.330Z,99.90
2019-02-24T16:23:05.837Z,99.90
2019-02-24T16:25:34.288Z,99.90
2019-02-24T16:28:02.741Z,99.90
2019-02-24T16:30:31.156Z,99.90
2019-02-24T16:32:59.585Z,99.90
2019-02-24T16:35:28.045Z,99.90
2019-02-24T16:37:56.466Z,99.90
2019-02-24T16:40:28.926Z,99.90
2019-02-24T16:42:57.340Z,99.90
2019-02-24T16:45:25.738Z,99.90
2019-02-24T16:47:54.527Z,99.90
2019-02-24T16:50:24.267Z,99.90
2019-02-24T16:52:52.747Z,99.90
2019-02-24T16:55:21.169Z,99.90
2019-02-24T16:57:49.584Z,99.90
2019-02-24T17:00:26.177Z,99.90
2019-02-24T17:02:54.868Z,99.90
2019-02-24T17:05:26.045Z,99.90
2019-02-24T17:07:54.488Z,99.90
2019-02-24T17:10:24.733Z,99.90
2019-02-24T17:12:53.174Z,99.90
2019-02-24T17:15:21.596Z,99.90
2019-02-24T17:17:50.072Z,99.90
2019-02-24T17:20:20.420Z,99.90
2019-02-24T17:22:48.852Z,99.90
2019-02-24T17:25:17.326Z,99.90
2019-02-24T17:27:45.804Z,99.90
2019-02-24T17:30:16.051Z,99.90
2019-02-24T17:33:03.831Z,99.90
2019-02-24T17:35:32.236Z,99.90
2019-02-24T17:38:00.679Z,99.90
2019-02-24T17:40:29.084Z,99.90
2019-02-24T17:42:57.483Z,99.90
2019-02-24T17:45:25.926Z,99.90
2019-02-24T17:47:54.326Z,99.90
2019-02-24T17:50:22.776Z,99.90
2019-02-24T17:52:51.186Z,99.90
2019-02-24T17:55:20.075Z,99.90
2019-02-24T17:57:48.496Z,99.90
2019-02-24T18:00:26.524Z,99.90
2019-02-24T18:02:55.023Z,99.90
2019-02-24T18:05:23.779Z,99.90
2019-02-24T18:07:52.273Z,99.90
2019-02-24T18:10:20.687Z,99.90
2019-02-24T18:12:49.091Z,99.90
2019-02-24T18:15:17.556Z,99.90
2019-02-24T18:17:45.996Z,99.90
2019-02-24T18:20:19.235Z,99.90
2019-02-24T18:22:47.662Z,99.90
2019-02-24T18:25:16.276Z,99.90
2019-02-24T18:27:44.680Z,99.90
2019-02-24T18:30:18.755Z,99.90
2019-02-24T18:32:47.164Z,99.90
2019-02-24T18:35:15.593Z,99.90
2019-02-24T18:37:44.023Z,99.90
2019-02-24T18:40:13.971Z,99.90
2019-02-24T18:42:42.393Z,99.90
2019-02-24T18:45:12.447Z,99.90
2019-02-24T18:47:40.871Z,99.90
2019-02-24T18:50:14.763Z,99.90
2019-02-24T18:52:43.335Z,99.90
2019-02-24T18:55:12.598Z,99.90
2019-02-24T18:57:41.000Z,99.90
2019-02-24T19:00:20.381Z,99.90
2019-02-24T19:02:49.459Z,99.90
2019-02-24T19:05:17.900Z,99.90
2019-02-24T19:07:46.304Z,99.90
2019-02-24T19:10:22.309Z,99.90
2019-02-24T19:12:51.112Z,99.90
2019-02-24T19:15:21.271Z,99.90
2019-02-24T19:17:49.670Z,99.90
2019-02-24T19:20:22.214Z,99.90
2019-02-24T19:22:50.608Z,99.90
2019-02-24T19:25:19.184Z,99.90
2019-02-24T19:27:47.604Z,99.90
2019-02-24T19:30:19.988Z,99.90
2019-02-24T19:32:48.695Z,99.90
2019-02-24T19:35:18.462Z,99.90
2019-02-24T19:37:46.958Z,99.90
2019-02-24T19:40:19.083Z,99.90
2019-02-24T19:42:47.487Z,99.90
2019-02-24T19:45:28.079Z,99.90
2019-02-24T19:47:56.503Z,99.90
2019-02-24T19:50:24.911Z,99.90
2019-02-24T19:52:53.341Z,99.90
2019-02-24T19:55:21.728Z,99.90
2019-02-24T19:57:50.491Z,99.90
2019-02-24T20:00:24.049Z,99.90
2019-02-24T20:02:52.464Z,99.90
2019-02-24T20:05:21.407Z,99.90
2019-02-24T20:07:50.220Z,99.90
2019-02-24T20:10:23.520Z,99.90
2019-02-24T20:12:51.937Z,99.90
2019-02-24T20:15:20.350Z,99.90
2019-02-24T20:17:48.755Z,99.90
2019-02-24T20:20:17.427Z,99.90
2019-02-24T20:22:46.136Z,99.90
2019-02-24T20:25:16.299Z,99.90
2019-02-24T20:27:44.712Z,99.90
2019-02-24T20:30:30.836Z,99.90
2019-02-24T20:32:59.535Z,99.90
2019-02-24T20:35:27.948Z,99.90
2019-02-24T20:37:56.363Z,99.90
2019-02-24T20:40:25.164Z,99.90
2019-02-24T20:42:53.576Z,99.90
2019-02-24T20:45:23.676Z,99.90
2019-02-24T20:47:52.082Z,99.90
2019-02-24T20:50:23.588Z,99.90
2019-02-24T20:52:51.990Z,99.90
2019-02-24T20:55:20.687Z,99.90
2019-02-24T20:57:49.090Z,99.90
2019-02-24T21:00:20.528Z,99.90
2019-02-24T21:02:48.961Z,99.90
2019-02-24T21:05:17.358Z,99.90
2019-02-24T21:07:45.760Z,99.90
2019-02-24T21:10:14.177Z,99.90
2019-02-24T21:12:42.598Z,99.90
2019-02-24T21:15:13.547Z,99.90
2019-02-24T21:17:42.023Z,99.90
2019-02-24T21:20:16.530Z,99.90
2019-02-24T21:22:44.944Z,99.90
2019-02-24T21:25:13.349Z,99.90
2019-02-24T21:27:42.081Z,99.90
2019-02-24T21:30:16.559Z,99.90
2019-02-24T21:32:44.959Z,99.90
2019-02-24T21:35:13.822Z,99.90
2019-02-24T21:37:42.323Z,99.90
2019-02-24T21:40:13.175Z,99.90
2019-02-24T21:42:41.605Z,99.90
2019-02-24T21:45:15.539Z,99.90
2019-02-24T21:47:44.241Z,99.90
2019-02-24T21:50:15.105Z,99.90
2019-02-24T21:52:43.527Z,99.90
2019-02-24T21:55:12.463Z,99.90
2019-02-24T21:57:40.867Z,99.90
2019-02-24T22:00:21.014Z,99.90
2019-02-24T22:02:49.413Z,99.90
2019-02-24T22:05:17.840Z,99.90
2019-02-24T22:07:46.231Z,99.90
2019-02-24T22:10:15.692Z,99.90
2019-02-24T22:12:44.104Z,99.90
2019-02-24T22:15:15.680Z,99.90
2019-02-24T22:17:44.099Z,99.90
2019-02-24T22:20:14.460Z,99.90
2019-02-24T22:22:42.861Z,99.90
2019-02-24T22:25:12.716Z,99.90
2019-02-24T22:27:41.118Z,99.90
2019-02-24T22:30:12.844Z,99.90
2019-02-24T22:32:41.244Z,99.90
2019-02-24T22:35:10.206Z,99.90
2019-02-24T22:37:38.943Z,99.90
2019-02-24T22:40:11.854Z,99.90
2019-02-24T22:42:40.427Z,99.90
2019-02-24T22:45:20.616Z,99.90
2019-02-24T22:47:49.020Z,99.90
2019-02-24T22:50:17.727Z,99.90
2019-02-24T22:52:46.560Z,99.90
2019-02-24T22:55:16.173Z,99.90
2019-02-24T22:57:44.607Z,99.90
2019-02-24T23:00:45.301Z,99.90
2019-02-24T23:03:13.686Z,99.90
2019-02-24T23:05:42.111Z,99.90
2019-02-24T23:08:10.523Z,99.90
2019-02-24T23:10:38.955Z,99.90
2019-02-24T23:13:07.356Z,99.90
2019-02-24T23:15:35.767Z,99.90
2019-02-24T23:18:04.359Z,99.90
2019-02-24T23:20:32.772Z,99.90
2019-02-24T23:23:01.187Z,99.90
2019-02-24T23:25:29.583Z,99.90
2019-02-24T23:27:58.300Z,99.90
2019-02-24T23:30:26.701Z,99.90
2019-02-24T23:32:55.111Z,99.90
2019-02-24T23:35:23.526Z,99.90
2019-02-24T23:37:51.940Z,99.90
2019-02-24T23:40:20.354Z,99.90
2019-02-24T23:42:48.766Z,99.90
2019-02-24T23:45:17.171Z,99.90
2019-02-24T23:47:45.581Z,99.90
2019-02-24T23:50:13.985Z,99.90
2019-02-24T23:52:42.387Z,99.90
2019-02-24T23:55:11.464Z,99.90
2019-02-24T23:57:39.961Z,99.90
